sensor_id;sensor_type;location;lat;lon;timestamp;P1;durP1;ratioP1;P2;durP2;ratioP2
10657;SDS011;5377;43.276;26.930;2022-09-02T05:26:07;7.70;;;5.85;;
10657;SDS011;5377;43.276;26.930;2022-09-02T05:29:19;15.82;;;5.38;;
10657;SDS011;5377;43.276;26.930;2022-09-02T05:35:09;10.30;;;5.20;;
10657;SDS011;5377;43.276;26.930;2022-09-02T05:37:36;7.70;;;5.13;;
10657;SDS011;5377;43.276;26.930;2022-09-02T05:40:03;10.98;;;5.35;;
10657;SDS011;5377;43.276;26.930;2022-09-02T05:42:32;9.55;;;5.45;;
10657;SDS011;5377;43.276;26.930;2022-09-02T05:45:00;7.97;;;4.70;;
10657;SDS011;5377;43.276;26.930;2022-09-02T06:15:00;14.70;;;4.35;;
10657;SDS011;5377;43.276;26.930;2022-09-02T06:17:27;17.50;;;5.75;;
10657;SDS011;5377;43.276;26.930;2022-09-02T06:19:54;4.75;;;4.10;;
10657;SDS011;5377;43.276;26.930;2022-09-02T06:22:21;7.57;;;4.63;;
10657;SDS011;5377;43.276;26.930;2022-09-02T06:24:48;8.98;;;4.47;;
10657;SDS011;5377;43.276;26.930;2022-09-02T06:27:16;12.45;;;4.28;;
10657;SDS011;5377;43.276;26.930;2022-09-02T06:29:43;11.15;;;4.25;;
10657;SDS011;5377;43.276;26.930;2022-09-02T06:32:12;7.82;;;4.15;;
10657;SDS011;5377;43.276;26.930;2022-09-02T06:34:39;7.25;;;3.95;;
10657;SDS011;5377;43.276;26.930;2022-09-02T06:37:05;6.57;;;3.83;;
10657;SDS011;5377;43.276;26.930;2022-09-02T06:39:32;16.42;;;5.15;;
10657;SDS011;5377;43.276;26.930;2022-09-02T06:42:00;7.03;;;4.55;;
10657;SDS011;5377;43.276;26.930;2022-09-02T06:44:27;4.40;;;3.63;;
10657;SDS011;5377;43.276;26.930;2022-09-02T06:46:54;5.72;;;3.60;;
10657;SDS011;5377;43.276;26.930;2022-09-02T06:49:25;4.65;;;3.60;;
10657;SDS011;5377;43.276;26.930;2022-09-02T06:51:53;5.60;;;3.90;;
10657;SDS011;5377;43.276;26.930;2022-09-02T06:54:21;6.10;;;3.55;;
10657;SDS011;5377;43.276;26.930;2022-09-02T06:56:49;6.82;;;4.57;;
10657;SDS011;5377;43.276;26.930;2022-09-02T06:59:17;4.80;;;3.65;;
10657;SDS011;5377;43.276;26.930;2022-09-02T07:01:46;5.45;;;3.47;;
10657;SDS011;5377;43.276;26.930;2022-09-02T07:04:13;5.32;;;3.80;;
10657;SDS011;5377;43.276;26.930;2022-09-02T07:07:01;6.72;;;3.60;;
10657;SDS011;5377;43.276;26.930;2022-09-02T07:09:30;4.45;;;3.80;;
10657;SDS011;5377;43.276;26.930;2022-09-02T07:11:58;4.57;;;3.85;;
10657;SDS011;5377;43.276;26.930;2022-09-02T07:14:26;5.75;;;3.13;;
10657;SDS011;5377;43.276;26.930;2022-09-02T07:16:54;5.78;;;4.25;;
10657;SDS011;5377;43.276;26.930;2022-09-02T07:19:24;7.82;;;6.18;;
10657;SDS011;5377;43.276;26.930;2022-09-02T07:21:51;6.18;;;3.78;;
10657;SDS011;5377;43.276;26.930;2022-09-02T07:24:20;8.05;;;3.63;;
10657;SDS011;5377;43.276;26.930;2022-09-02T07:26:48;8.43;;;4.07;;
10657;SDS011;5377;43.276;26.930;2022-09-02T07:29:16;6.28;;;3.35;;
10657;SDS011;5377;43.276;26.930;2022-09-02T07:31:44;7.63;;;3.65;;
10657;SDS011;5377;43.276;26.930;2022-09-02T07:34:12;5.15;;;3.47;;
10657;SDS011;5377;43.276;26.930;2022-09-02T07:36:41;7.32;;;3.97;;
10657;SDS011;5377;43.276;26.930;2022-09-02T07:39:10;7.03;;;3.90;;
10657;SDS011;5377;43.276;26.930;2022-09-02T07:41:39;5.60;;;4.25;;
10657;SDS011;5377;43.276;26.930;2022-09-02T07:44:07;5.75;;;3.70;;
10657;SDS011;5377;43.276;26.930;2022-09-02T07:46:35;7.53;;;3.50;;
10657;SDS011;5377;43.276;26.930;2022-09-02T07:49:04;8.18;;;3.55;;
10657;SDS011;5377;43.276;26.930;2022-09-02T07:51:33;7.07;;;3.83;;
10657;SDS011;5377;43.276;26.930;2022-09-02T07:54:01;8.77;;;3.38;;
10657;SDS011;5377;43.276;26.930;2022-09-02T07:56:31;7.95;;;3.92;;
10657;SDS011;5377;43.276;26.930;2022-09-02T07:59:00;12.00;;;4.03;;
10657;SDS011;5377;43.276;26.930;2022-09-02T08:01:27;4.15;;;3.58;;
10657;SDS011;5377;43.276;26.930;2022-09-02T08:03:54;7.88;;;3.53;;
10657;SDS011;5377;43.276;26.930;2022-09-02T08:06:21;7.18;;;3.28;;
10657;SDS011;5377;43.276;26.930;2022-09-02T08:08:51;5.90;;;4.05;;
10657;SDS011;5377;43.276;26.930;2022-09-02T08:11:18;2.85;;;2.63;;
10657;SDS011;5377;43.276;26.930;2022-09-02T08:13:45;4.10;;;3.42;;
10657;SDS011;5377;43.276;26.930;2022-09-02T08:16:14;6.05;;;3.03;;
10657;SDS011;5377;43.276;26.930;2022-09-02T08:18:41;7.10;;;3.20;;
10657;SDS011;5377;43.276;26.930;2022-09-02T08:21:08;6.90;;;3.53;;
10657;SDS011;5377;43.276;26.930;2022-09-02T08:23:36;8.32;;;4.78;;
10657;SDS011;5377;43.276;26.930;2022-09-02T08:26:03;5.40;;;3.20;;
10657;SDS011;5377;43.276;26.930;2022-09-02T08:28:31;6.30;;;3.25;;
10657;SDS011;5377;43.276;26.930;2022-09-02T08:31:02;4.25;;;3.50;;
10657;SDS011;5377;43.276;26.930;2022-09-02T08:33:32;5.15;;;3.45;;
10657;SDS011;5377;43.276;26.930;2022-09-02T08:36:00;10.80;;;5.10;;
10657;SDS011;5377;43.276;26.930;2022-09-02T08:38:29;6.88;;;3.55;;
10657;SDS011;5377;43.276;26.930;2022-09-02T08:40:57;3.95;;;2.97;;
10657;SDS011;5377;43.276;26.930;2022-09-02T08:43:26;4.80;;;3.35;;
10657;SDS011;5377;43.276;26.930;2022-09-02T08:45:57;4.15;;;3.13;;
10657;SDS011;5377;43.276;26.930;2022-09-02T08:48:33;8.88;;;3.58;;
10657;SDS011;5377;43.276;26.930;2022-09-02T08:51:06;4.93;;;2.80;;
10657;SDS011;5377;43.276;26.930;2022-09-02T08:53:39;4.75;;;2.83;;
10657;SDS011;5377;43.276;26.930;2022-09-02T08:56:13;8.50;;;2.97;;
10657;SDS011;5377;43.276;26.930;2022-09-02T08:58:42;6.30;;;3.75;;
10657;SDS011;5377;43.276;26.930;2022-09-02T09:01:13;7.47;;;3.33;;
10657;SDS011;5377;43.276;26.930;2022-09-02T09:03:58;4.70;;;2.78;;
10657;SDS011;5377;43.276;26.930;2022-09-02T09:06:37;4.93;;;2.60;;
10657;SDS011;5377;43.276;26.930;2022-09-02T09:09:16;4.07;;;2.67;;
10657;SDS011;5377;43.276;26.930;2022-09-02T09:11:57;4.30;;;3.17;;
10657;SDS011;5377;43.276;26.930;2022-09-02T09:14:35;6.28;;;2.80;;
10657;SDS011;5377;43.276;26.930;2022-09-02T09:17:13;7.40;;;3.20;;
10657;SDS011;5377;43.276;26.930;2022-09-02T09:19:50;7.63;;;3.90;;
10657;SDS011;5377;43.276;26.930;2022-09-02T09:22:20;8.55;;;3.55;;
10657;SDS011;5377;43.276;26.930;2022-09-02T09:24:50;8.07;;;3.35;;
10657;SDS011;5377;43.276;26.930;2022-09-02T09:27:18;5.53;;;3.10;;
10657;SDS011;5377;43.276;26.930;2022-09-02T09:29:47;5.35;;;3.47;;
10657;SDS011;5377;43.276;26.930;2022-09-02T09:32:18;5.57;;;3.10;;
10657;SDS011;5377;43.276;26.930;2022-09-02T09:34:56;8.55;;;3.08;;
10657;SDS011;5377;43.276;26.930;2022-09-02T09:37:28;4.40;;;2.97;;
10657;SDS011;5377;43.276;26.930;2022-09-02T09:40:22;5.18;;;3.22;;
10657;SDS011;5377;43.276;26.930;2022-09-02T09:42:56;6.63;;;3.28;;
10657;SDS011;5377;43.276;26.930;2022-09-02T09:45:29;4.00;;;3.65;;
10657;SDS011;5377;43.276;26.930;2022-09-02T09:51:07;6.53;;;3.92;;
10657;SDS011;5377;43.276;26.930;2022-09-02T09:53:37;9.70;;;3.67;;
10657;SDS011;5377;43.276;26.930;2022-09-02T09:56:04;4.88;;;3.20;;
10657;SDS011;5377;43.276;26.930;2022-09-02T09:58:34;5.30;;;2.83;;
10657;SDS011;5377;43.276;26.930;2022-09-02T10:01:11;4.80;;;3.40;;
10657;SDS011;5377;43.276;26.930;2022-09-02T10:03:47;3.83;;;3.35;;
10657;SDS011;5377;43.276;26.930;2022-09-02T10:06:22;9.13;;;3.83;;
10657;SDS011;5377;43.276;26.930;2022-09-02T10:09:03;7.20;;;3.28;;
10657;SDS011;5377;43.276;26.930;2022-09-02T10:11:32;11.35;;;2.90;;
10657;SDS011;5377;43.276;26.930;2022-09-02T10:14:01;8.73;;;3.47;;
10657;SDS011;5377;43.276;26.930;2022-09-02T10:19:22;5.20;;;3.05;;
10657;SDS011;5377;43.276;26.930;2022-09-02T10:22:08;6.47;;;3.33;;
10657;SDS011;5377;43.276;26.930;2022-09-02T10:24:58;7.25;;;4.15;;
10657;SDS011;5377;43.276;26.930;2022-09-02T10:27:36;6.03;;;4.78;;
10657;SDS011;5377;43.276;26.930;2022-09-02T10:30:14;14.40;;;5.72;;
10657;SDS011;5377;43.276;26.930;2022-09-02T10:32:52;7.07;;;4.95;;
10657;SDS011;5377;43.276;26.930;2022-09-02T10:35:34;7.80;;;4.70;;
10657;SDS011;5377;43.276;26.930;2022-09-02T10:41:08;5.70;;;3.58;;
10657;SDS011;5377;43.276;26.930;2022-09-02T10:43:49;6.88;;;3.65;;
10657;SDS011;5377;43.276;26.930;2022-09-02T10:46:25;7.72;;;3.53;;
10657;SDS011;5377;43.276;26.930;2022-09-02T10:49:03;9.60;;;3.63;;
10657;SDS011;5377;43.276;26.930;2022-09-02T10:51:41;11.80;;;4.15;;
10657;SDS011;5377;43.276;26.930;2022-09-02T10:54:22;4.03;;;3.20;;
10657;SDS011;5377;43.276;26.930;2022-09-02T10:57:03;10.95;;;4.22;;
10657;SDS011;5377;43.276;26.930;2022-09-02T10:59:37;11.50;;;4.47;;
10657;SDS011;5377;43.276;26.930;2022-09-02T11:02:14;6.10;;;4.18;;
10657;SDS011;5377;43.276;26.930;2022-09-02T11:04:47;5.78;;;4.10;;
10657;SDS011;5377;43.276;26.930;2022-09-02T11:07:21;8.40;;;4.35;;
10657;SDS011;5377;43.276;26.930;2022-09-02T11:09:56;9.18;;;4.68;;
10657;SDS011;5377;43.276;26.930;2022-09-02T11:12:33;7.47;;;3.92;;
10657;SDS011;5377;43.276;26.930;2022-09-02T11:15:05;6.40;;;3.75;;
10657;SDS011;5377;43.276;26.930;2022-09-02T11:17:41;4.65;;;3.33;;
10657;SDS011;5377;43.276;26.930;2022-09-02T11:20:15;7.38;;;3.88;;
10657;SDS011;5377;43.276;26.930;2022-09-02T11:22:53;9.73;;;4.00;;
10657;SDS011;5377;43.276;26.930;2022-09-02T11:25:26;6.88;;;4.03;;
10657;SDS011;5377;43.276;26.930;2022-09-02T11:28:02;5.43;;;3.50;;
10657;SDS011;5377;43.276;26.930;2022-09-02T11:30:42;17.08;;;4.70;;
10657;SDS011;5377;43.276;26.930;2022-09-02T11:33:14;16.90;;;5.90;;
10657;SDS011;5377;43.276;26.930;2022-09-02T11:35:45;14.77;;;4.90;;
10657;SDS011;5377;43.276;26.930;2022-09-02T11:38:18;7.43;;;4.78;;
10657;SDS011;5377;43.276;26.930;2022-09-02T11:41:06;8.32;;;4.43;;
10657;SDS011;5377;43.276;26.930;2022-09-02T11:43:59;7.68;;;4.75;;
10657;SDS011;5377;43.276;26.930;2022-09-02T11:46:48;6.00;;;3.80;;
10657;SDS011;5377;43.276;26.930;2022-09-02T11:49:37;10.05;;;6.00;;
10657;SDS011;5377;43.276;26.930;2022-09-02T11:52:26;8.10;;;4.28;;
10657;SDS011;5377;43.276;26.930;2022-09-02T11:55:13;7.18;;;3.83;;
10657;SDS011;5377;43.276;26.930;2022-09-02T11:57:51;17.42;;;5.95;;
10657;SDS011;5377;43.276;26.930;2022-09-02T12:00:26;10.73;;;4.30;;
10657;SDS011;5377;43.276;26.930;2022-09-02T12:03:00;5.72;;;3.80;;
10657;SDS011;5377;43.276;26.930;2022-09-02T12:05:47;5.40;;;4.38;;
10657;SDS011;5377;43.276;26.930;2022-09-02T12:24:01;5.80;;;4.22;;
10657;SDS011;5377;43.276;26.930;2022-09-02T12:29:35;9.68;;;6.40;;
10657;SDS011;5377;43.276;26.930;2022-09-02T12:32:02;11.20;;;4.38;;
10657;SDS011;5377;43.276;26.930;2022-09-02T12:40:33;7.40;;;4.50;;
10657;SDS011;5377;43.276;26.930;2022-09-02T12:45:51;7.30;;;4.20;;
10657;SDS011;5377;43.276;26.930;2022-09-02T12:48:23;4.80;;;4.20;;
10657;SDS011;5377;43.276;26.930;2022-09-02T12:51:01;7.60;;;4.35;;
10657;SDS011;5377;43.276;26.930;2022-09-02T12:53:33;4.82;;;3.78;;
10657;SDS011;5377;43.276;26.930;2022-09-02T12:56:03;9.18;;;4.65;;
10657;SDS011;5377;43.276;26.930;2022-09-02T12:58:34;9.30;;;4.57;;
10657;SDS011;5377;43.276;26.930;2022-09-02T13:01:08;6.70;;;4.28;;
10657;SDS011;5377;43.276;26.930;2022-09-02T13:03:52;7.68;;;5.50;;
10657;SDS011;5377;43.276;26.930;2022-09-02T13:06:32;7.15;;;4.10;;
10657;SDS011;5377;43.276;26.930;2022-09-02T13:09:35;5.63;;;3.80;;
10657;SDS011;5377;43.276;26.930;2022-09-02T13:15:20;6.50;;;3.97;;
10657;SDS011;5377;43.276;26.930;2022-09-02T13:21:18;7.80;;;4.93;;
10657;SDS011;5377;43.276;26.930;2022-09-02T13:24:02;14.48;;;5.00;;
10657;SDS011;5377;43.276;26.930;2022-09-02T13:30:02;6.88;;;4.55;;
10657;SDS011;5377;43.276;26.930;2022-09-02T13:32:32;6.53;;;3.70;;
10657;SDS011;5377;43.276;26.930;2022-09-02T13:35:01;4.15;;;3.75;;
10657;SDS011;5377;43.276;26.930;2022-09-02T13:37:32;7.22;;;4.90;;
10657;SDS011;5377;43.276;26.930;2022-09-02T13:40:00;7.03;;;3.00;;
10657;SDS011;5377;43.276;26.930;2022-09-02T13:42:32;4.90;;;3.60;;
10657;SDS011;5377;43.276;26.930;2022-09-02T13:45:10;8.75;;;4.20;;
10657;SDS011;5377;43.276;26.930;2022-09-02T13:47:43;10.52;;;5.07;;
10657;SDS011;5377;43.276;26.930;2022-09-02T13:50:12;7.50;;;5.18;;
10657;SDS011;5377;43.276;26.930;2022-09-02T13:52:42;6.10;;;5.03;;
10657;SDS011;5377;43.276;26.930;2022-09-02T13:55:13;10.20;;;5.43;;
10657;SDS011;5377;43.276;26.930;2022-09-02T13:57:43;9.85;;;5.55;;
10657;SDS011;5377;43.276;26.930;2022-09-02T14:00:14;9.10;;;6.50;;
10657;SDS011;5377;43.276;26.930;2022-09-02T14:02:57;11.98;;;7.97;;
10657;SDS011;5377;43.276;26.930;2022-09-02T14:05:25;10.18;;;6.97;;
10657;SDS011;5377;43.276;26.930;2022-09-02T14:07:54;9.80;;;7.40;;
10657;SDS011;5377;43.276;26.930;2022-09-02T14:10:25;8.73;;;7.53;;
10657;SDS011;5377;43.276;26.930;2022-09-02T14:12:54;8.90;;;6.97;;
10657;SDS011;5377;43.276;26.930;2022-09-02T14:15:26;8.05;;;6.50;;
10657;SDS011;5377;43.276;26.930;2022-09-02T14:18:07;11.60;;;7.88;;
10657;SDS011;5377;43.276;26.930;2022-09-02T14:20:35;9.93;;;7.63;;
10657;SDS011;5377;43.276;26.930;2022-09-02T14:23:04;8.65;;;6.50;;
10657;SDS011;5377;43.276;26.930;2022-09-02T14:25:34;18.35;;;16.30;;
10657;SDS011;5377;43.276;26.930;2022-09-02T14:28:06;37.60;;;31.40;;
10657;SDS011;5377;43.276;26.930;2022-09-02T14:30:39;11.20;;;7.53;;
10657;SDS011;5377;43.276;26.930;2022-09-02T14:33:17;9.30;;;8.20;;
10657;SDS011;5377;43.276;26.930;2022-09-02T14:36:04;15.65;;;11.00;;
10657;SDS011;5377;43.276;26.930;2022-09-02T14:38:34;14.32;;;7.20;;
10657;SDS011;5377;43.276;26.930;2022-09-02T14:41:04;10.60;;;8.23;;
10657;SDS011;5377;43.276;26.930;2022-09-02T14:43:42;11.43;;;7.40;;
10657;SDS011;5377;43.276;26.930;2022-09-02T14:49:18;16.15;;;7.95;;
10657;SDS011;5377;43.276;26.930;2022-09-02T14:51:52;17.15;;;7.18;;
10657;SDS011;5377;43.276;26.930;2022-09-02T14:57:48;8.02;;;6.63;;
10657;SDS011;5377;43.276;26.930;2022-09-02T15:01:11;18.25;;;8.63;;
10657;SDS011;5377;43.276;26.930;2022-09-02T15:03:40;11.50;;;8.07;;
10657;SDS011;5377;43.276;26.930;2022-09-02T15:06:08;27.95;;;20.52;;
10657;SDS011;5377;43.276;26.930;2022-09-02T15:08:35;21.58;;;13.05;;
10657;SDS011;5377;43.276;26.930;2022-09-02T15:41:53;17.70;;;10.55;;
10657;SDS011;5377;43.276;26.930;2022-09-02T15:44:20;12.35;;;6.85;;
10657;SDS011;5377;43.276;26.930;2022-09-02T15:46:49;16.55;;;12.05;;
10657;SDS011;5377;43.276;26.930;2022-09-02T15:49:17;19.48;;;12.80;;
10657;SDS011;5377;43.276;26.930;2022-09-02T15:51:44;14.93;;;8.80;;
10657;SDS011;5377;43.276;26.930;2022-09-02T15:54:14;27.48;;;14.45;;
10657;SDS011;5377;43.276;26.930;2022-09-02T15:56:42;53.75;;;29.90;;
10657;SDS011;5377;43.276;26.930;2022-09-02T15:59:13;24.15;;;14.35;;
10657;SDS011;5377;43.276;26.930;2022-09-02T16:01:42;54.05;;;26.70;;
10657;SDS011;5377;43.276;26.930;2022-09-02T16:04:11;18.60;;;12.30;;
10657;SDS011;5377;43.276;26.930;2022-09-02T16:06:39;25.02;;;15.35;;
10657;SDS011;5377;43.276;26.930;2022-09-02T16:09:08;27.92;;;16.38;;
10657;SDS011;5377;43.276;26.930;2022-09-02T16:11:36;15.55;;;7.18;;
10657;SDS011;5377;43.276;26.930;2022-09-02T16:14:04;8.82;;;5.43;;
10657;SDS011;5377;43.276;26.930;2022-09-02T16:16:32;98.60;;;48.47;;
10657;SDS011;5377;43.276;26.930;2022-09-02T16:19:00;113.82;;;68.55;;
10657;SDS011;5377;43.276;26.930;2022-09-02T16:21:28;117.90;;;67.30;;
10657;SDS011;5377;43.276;26.930;2022-09-02T16:23:55;61.15;;;38.50;;
10657;SDS011;5377;43.276;26.930;2022-09-02T16:26:22;11.10;;;6.28;;
10657;SDS011;5377;43.276;26.930;2022-09-02T16:28:50;10.77;;;5.78;;
10657;SDS011;5377;43.276;26.930;2022-09-02T16:31:19;8.77;;;4.90;;
10657;SDS011;5377;43.276;26.930;2022-09-02T16:33:53;16.80;;;7.50;;
10657;SDS011;5377;43.276;26.930;2022-09-02T16:36:21;10.35;;;5.47;;
10657;SDS011;5377;43.276;26.930;2022-09-02T16:38:49;8.93;;;7.20;;
10657;SDS011;5377;43.276;26.930;2022-09-02T16:41:22;8.38;;;6.40;;
10657;SDS011;5377;43.276;26.930;2022-09-02T16:43:51;7.28;;;6.20;;
10657;SDS011;5377;43.276;26.930;2022-09-02T16:46:18;21.13;;;16.85;;
10657;SDS011;5377;43.276;26.930;2022-09-02T16:48:45;12.50;;;9.70;;
10657;SDS011;5377;43.276;26.930;2022-09-02T16:51:14;21.83;;;16.75;;
10657;SDS011;5377;43.276;26.930;2022-09-02T16:53:41;20.90;;;14.45;;
10657;SDS011;5377;43.276;26.930;2022-09-02T16:56:10;14.25;;;7.28;;
10657;SDS011;5377;43.276;26.930;2022-09-02T16:58:38;15.27;;;8.40;;
10657;SDS011;5377;43.276;26.930;2022-09-02T17:01:05;14.32;;;7.43;;
10657;SDS011;5377;43.276;26.930;2022-09-02T17:03:35;10.63;;;7.05;;
10657;SDS011;5377;43.276;26.930;2022-09-02T17:06:03;9.23;;;7.15;;
10657;SDS011;5377;43.276;26.930;2022-09-02T17:08:32;9.93;;;5.82;;
10657;SDS011;5377;43.276;26.930;2022-09-02T17:13:48;9.38;;;7.35;;
10657;SDS011;5377;43.276;26.930;2022-09-02T17:16:17;9.02;;;5.53;;
10657;SDS011;5377;43.276;26.930;2022-09-02T17:18:45;16.77;;;15.13;;
10657;SDS011;5377;43.276;26.930;2022-09-02T17:21:19;19.23;;;16.45;;
10657;SDS011;5377;43.276;26.930;2022-09-02T17:23:50;6.22;;;5.68;;
10657;SDS011;5377;43.276;26.930;2022-09-02T17:26:20;5.85;;;5.35;;
10657;SDS011;5377;43.276;26.930;2022-09-02T17:28:48;6.85;;;5.13;;
10657;SDS011;5377;43.276;26.930;2022-09-02T17:31:19;9.30;;;6.57;;
10657;SDS011;5377;43.276;26.930;2022-09-02T17:33:48;9.32;;;7.93;;
10657;SDS011;5377;43.276;26.930;2022-09-02T17:36:17;7.20;;;6.22;;
10657;SDS011;5377;43.276;26.930;2022-09-02T17:38:45;9.73;;;7.70;;
10657;SDS011;5377;43.276;26.930;2022-09-02T17:41:13;5.10;;;4.63;;
10657;SDS011;5377;43.276;26.930;2022-09-02T17:43:58;5.93;;;4.55;;
10657;SDS011;5377;43.276;26.930;2022-09-02T17:46:25;5.47;;;4.63;;
10657;SDS011;5377;43.276;26.930;2022-09-02T17:48:52;5.80;;;4.28;;
10657;SDS011;5377;43.276;26.930;2022-09-02T17:51:21;6.68;;;6.07;;
10657;SDS011;5377;43.276;26.930;2022-09-02T17:53:48;5.15;;;4.53;;
10657;SDS011;5377;43.276;26.930;2022-09-02T17:56:19;5.40;;;5.00;;
10657;SDS011;5377;43.276;26.930;2022-09-02T17:59:05;13.18;;;12.05;;
10657;SDS011;5377;43.276;26.930;2022-09-02T18:01:46;7.70;;;6.90;;
10657;SDS011;5377;43.276;26.930;2022-09-02T18:04:35;4.80;;;3.90;;
10657;SDS011;5377;43.276;26.930;2022-09-02T18:07:13;6.50;;;6.00;;
10657;SDS011;5377;43.276;26.930;2022-09-02T18:09:48;7.47;;;6.25;;
10657;SDS011;5377;43.276;26.930;2022-09-02T18:12:18;5.38;;;4.07;;
10657;SDS011;5377;43.276;26.930;2022-09-02T18:14:46;16.33;;;14.55;;
10657;SDS011;5377;43.276;26.930;2022-09-02T18:17:20;5.20;;;4.63;;
10657;SDS011;5377;43.276;26.930;2022-09-02T18:19:57;5.32;;;4.82;;
10657;SDS011;5377;43.276;26.930;2022-09-02T18:25:32;5.25;;;4.63;;
10657;SDS011;5377;43.276;26.930;2022-09-02T18:28:15;11.30;;;10.18;;
10657;SDS011;5377;43.276;26.930;2022-09-02T18:30:48;7.43;;;6.68;;
10657;SDS011;5377;43.276;26.930;2022-09-02T18:36:22;5.40;;;4.90;;
10657;SDS011;5377;43.276;26.930;2022-09-02T18:39:10;7.55;;;5.97;;
10657;SDS011;5377;43.276;26.930;2022-09-02T18:41:48;8.18;;;6.07;;
10657;SDS011;5377;43.276;26.930;2022-09-02T18:44:28;9.13;;;8.18;;
10657;SDS011;5377;43.276;26.930;2022-09-02T18:47:01;6.57;;;4.80;;
10657;SDS011;5377;43.276;26.930;2022-09-02T18:49:32;6.22;;;5.28;;
10657;SDS011;5377;43.276;26.930;2022-09-02T18:52:02;6.72;;;6.07;;
10657;SDS011;5377;43.276;26.930;2022-09-02T18:54:33;7.50;;;6.07;;
10657;SDS011;5377;43.276;26.930;2022-09-02T18:57:08;5.75;;;5.20;;
10657;SDS011;5377;43.276;26.930;2022-09-02T18:59:41;6.43;;;5.25;;
10657;SDS011;5377;43.276;26.930;2022-09-02T19:02:14;6.55;;;5.95;;
10657;SDS011;5377;43.276;26.930;2022-09-02T19:04:47;5.30;;;4.80;;
10657;SDS011;5377;43.276;26.930;2022-09-02T19:07:14;8.68;;;6.20;;
10657;SDS011;5377;43.276;26.930;2022-09-02T19:10:02;9.85;;;6.55;;
10657;SDS011;5377;43.276;26.930;2022-09-02T19:12:30;9.10;;;6.00;;
10657;SDS011;5377;43.276;26.930;2022-09-02T19:15:01;7.95;;;6.15;;
10657;SDS011;5377;43.276;26.930;2022-09-02T19:17:31;6.68;;;5.95;;
10657;SDS011;5377;43.276;26.930;2022-09-02T19:19:58;9.07;;;6.60;;
10657;SDS011;5377;43.276;26.930;2022-09-02T19:22:25;6.25;;;5.85;;
10657;SDS011;5377;43.276;26.930;2022-09-02T19:24:54;7.32;;;6.63;;
10657;SDS011;5377;43.276;26.930;2022-09-02T19:27:27;7.30;;;6.70;;
10657;SDS011;5377;43.276;26.930;2022-09-02T19:29:57;5.90;;;5.38;;
10657;SDS011;5377;43.276;26.930;2022-09-02T19:32:30;6.70;;;5.95;;
10657;SDS011;5377;43.276;26.930;2022-09-02T19:34:59;5.85;;;5.28;;
10657;SDS011;5377;43.276;26.930;2022-09-02T19:37:30;5.88;;;5.47;;
10657;SDS011;5377;43.276;26.930;2022-09-02T19:39:57;11.18;;;9.75;;
10657;SDS011;5377;43.276;26.930;2022-09-02T19:42:30;31.90;;;28.48;;
10657;SDS011;5377;43.276;26.930;2022-09-02T19:44:57;22.00;;;19.77;;
10657;SDS011;5377;43.276;26.930;2022-09-02T19:47:24;15.88;;;14.35;;
10657;SDS011;5377;43.276;26.930;2022-09-02T19:49:53;8.63;;;7.82;;
10657;SDS011;5377;43.276;26.930;2022-09-02T19:52:20;6.25;;;5.65;;
10657;SDS011;5377;43.276;26.930;2022-09-02T19:54:46;5.75;;;5.25;;
10657;SDS011;5377;43.276;26.930;2022-09-02T19:57:13;5.95;;;5.57;;
10657;SDS011;5377;43.276;26.930;2022-09-02T19:59:40;6.07;;;5.53;;
10657;SDS011;5377;43.276;26.930;2022-09-02T20:02:07;6.35;;;5.20;;
10657;SDS011;5377;43.276;26.930;2022-09-02T20:04:34;6.40;;;5.78;;
10657;SDS011;5377;43.276;26.930;2022-09-02T20:07:02;9.73;;;6.22;;
10657;SDS011;5377;43.276;26.930;2022-09-02T20:09:29;6.53;;;5.05;;
10657;SDS011;5377;43.276;26.930;2022-09-02T20:11:56;7.15;;;5.57;;
10657;SDS011;5377;43.276;26.930;2022-09-02T20:14:23;14.48;;;11.43;;
10657;SDS011;5377;43.276;26.930;2022-09-02T20:16:52;11.80;;;10.07;;
10657;SDS011;5377;43.276;26.930;2022-09-02T20:19:19;8.75;;;7.03;;
10657;SDS011;5377;43.276;26.930;2022-09-02T20:21:46;6.97;;;6.25;;
10657;SDS011;5377;43.276;26.930;2022-09-02T20:24:20;6.95;;;6.32;;
10657;SDS011;5377;43.276;26.930;2022-09-02T20:26:52;7.32;;;6.55;;
10657;SDS011;5377;43.276;26.930;2022-09-02T20:29:32;8.38;;;6.63;;
10657;SDS011;5377;43.276;26.930;2022-09-02T20:32:16;7.10;;;6.50;;
10657;SDS011;5377;43.276;26.930;2022-09-02T20:34:55;7.30;;;6.63;;
10657;SDS011;5377;43.276;26.930;2022-09-02T20:37:37;10.80;;;9.70;;
10657;SDS011;5377;43.276;26.930;2022-09-02T20:40:26;11.32;;;10.23;;
10657;SDS011;5377;43.276;26.930;2022-09-02T20:43:24;9.13;;;8.32;;
10657;SDS011;5377;43.276;26.930;2022-09-02T20:46:04;8.38;;;7.63;;
10657;SDS011;5377;43.276;26.930;2022-09-02T20:48:44;9.38;;;8.48;;
10657;SDS011;5377;43.276;26.930;2022-09-02T20:51:21;9.75;;;8.57;;
10657;SDS011;5377;43.276;26.930;2022-09-02T20:54:02;15.35;;;13.60;;
10657;SDS011;5377;43.276;26.930;2022-09-02T20:56:46;12.43;;;11.38;;
10657;SDS011;5377;43.276;26.930;2022-09-02T20:59:21;8.30;;;7.38;;
10657;SDS011;5377;43.276;26.930;2022-09-02T21:01:58;8.27;;;7.53;;
10657;SDS011;5377;43.276;26.930;2022-09-02T21:04:29;8.65;;;7.63;;
10657;SDS011;5377;43.276;26.930;2022-09-02T21:07:01;8.63;;;7.85;;
10657;SDS011;5377;43.276;26.930;2022-09-02T21:09:38;8.32;;;7.63;;
10657;SDS011;5377;43.276;26.930;2022-09-02T21:12:15;8.50;;;7.75;;
10657;SDS011;5377;43.276;26.930;2022-09-02T21:14:50;9.60;;;8.18;;
10657;SDS011;5377;43.276;26.930;2022-09-02T21:17:26;9.50;;;8.70;;
10657;SDS011;5377;43.276;26.930;2022-09-02T21:20:06;9.27;;;8.40;;
10657;SDS011;5377;43.276;26.930;2022-09-02T21:22:41;8.88;;;8.02;;
10657;SDS011;5377;43.276;26.930;2022-09-02T21:25:13;10.10;;;9.15;;
10657;SDS011;5377;43.276;26.930;2022-09-02T21:27:47;9.50;;;8.60;;
10657;SDS011;5377;43.276;26.930;2022-09-02T21:30:20;9.75;;;8.95;;
10657;SDS011;5377;43.276;26.930;2022-09-02T21:32:50;9.02;;;8.23;;
10657;SDS011;5377;43.276;26.930;2022-09-02T21:35:20;13.43;;;12.13;;
10657;SDS011;5377;43.276;26.930;2022-09-02T21:37:52;8.95;;;8.15;;
10657;SDS011;5377;43.276;26.930;2022-09-02T21:40:24;10.52;;;9.57;;
10657;SDS011;5377;43.276;26.930;2022-09-02T21:43:12;9.05;;;8.20;;
10657;SDS011;5377;43.276;26.930;2022-09-02T21:45:55;8.45;;;7.75;;
10657;SDS011;5377;43.276;26.930;2022-09-02T21:48:35;8.27;;;7.47;;
10657;SDS011;5377;43.276;26.930;2022-09-02T21:51:14;11.80;;;8.13;;
10657;SDS011;5377;43.276;26.930;2022-09-02T21:53:51;8.18;;;7.47;;
10657;SDS011;5377;43.276;26.930;2022-09-02T21:56:29;7.78;;;7.07;;
10657;SDS011;5377;43.276;26.930;2022-09-02T21:59:16;7.43;;;6.82;;
10657;SDS011;5377;43.276;26.930;2022-09-02T22:02:05;7.47;;;6.78;;
10657;SDS011;5377;43.276;26.930;2022-09-02T22:04:42;7.38;;;6.78;;
10657;SDS011;5377;43.276;26.930;2022-09-02T22:07:21;7.00;;;6.57;;
10657;SDS011;5377;43.276;26.930;2022-09-02T22:09:57;6.90;;;6.30;;
10657;SDS011;5377;43.276;26.930;2022-09-02T22:12:36;7.30;;;6.70;;
10657;SDS011;5377;43.276;26.930;2022-09-02T22:15:08;6.82;;;6.20;;
10657;SDS011;5377;43.276;26.930;2022-09-02T22:17:41;6.00;;;5.50;;
10657;SDS011;5377;43.276;26.930;2022-09-02T22:20:16;7.03;;;5.63;;
10657;SDS011;5377;43.276;26.930;2022-09-02T22:22:46;5.65;;;5.13;;
10657;SDS011;5377;43.276;26.930;2022-09-02T22:25:18;4.97;;;4.68;;
10657;SDS011;5377;43.276;26.930;2022-09-02T22:27:48;5.75;;;4.97;;
10657;SDS011;5377;43.276;26.930;2022-09-02T22:30:21;6.13;;;4.45;;
10657;SDS011;5377;43.276;26.930;2022-09-02T22:32:48;6.28;;;4.57;;
10657;SDS011;5377;43.276;26.930;2022-09-02T22:35:20;4.68;;;4.18;;
10657;SDS011;5377;43.276;26.930;2022-09-02T22:37:54;4.50;;;4.10;;
10657;SDS011;5377;43.276;26.930;2022-09-02T22:40:27;4.60;;;4.20;;
10657;SDS011;5377;43.276;26.930;2022-09-02T22:43:00;4.90;;;4.43;;
10657;SDS011;5377;43.276;26.930;2022-09-02T22:45:32;5.07;;;4.68;;